Weather History for KUNI - March, 2012

Change the Weather History Date:

Thursday, March 29, 2012

  Actual Average (KPKB) Record (KPKB)
Temperature  
Mean Temperature 51 °F 48 °F  
Max Temperature 63 °F 59 °F 83 °F (1910)
Min Temperature 39 °F 37 °F 14 °F (2015)
Degree Days  
Heating Degree Days 14 17  
Month to date heating degree days 636  
Since 1 July heating degree days 4426  
Cooling Degree Days 0 0  
Month to date cooling degree days 0  
Year to date cooling degree days 0  
Growing Degree Days 1 (Base 50)    
Moisture  
Dew Point 37 °F    
Average Humidity 55    
Maximum Humidity 89    
Minimum Humidity 35    
Precipitation  
Precipitation 0.00 in 0.12 in 0.92 in (2014)
Month to date precipitation 3.47  
Year to date precipitation 9.12  
Sea Level Pressure  
Sea Level Pressure 29.99 in    
Wind  
Wind Speed 4 mph (North)    
Max Wind Speed 10 mph    
Max Gust Speed -    
Visibility 10 miles    
Events      
T = Trace of Precipitation, MM = Missing Value Source: NWS Daily Summary

Daily Weather History Graph

Daily Weather History Graph

Search for Another Location

Airport or City:

Trip Planner

Search our weather history database for the weather conditions in past years. The results will help you decide how hot, cold, wet, or windy it might be!

Date:

Astronomy

Mar. 29, 2012 Rise Set
Actual Time 7:17 AM EDT 7:50 PM EDT
Civil Twilight 6:50 AM EDT 8:17 PM EDT
Nautical Twilight 6:18 AM EDT 8:48 PM EDT
Astronomical Twilight 5:46 AM EDT 9:21 PM EDT
Moon 11:27 AM EDT (3/29) 1:38 AM EDT (3/29)
Length of Visible Light 13h 26m
Length of Day
12h 32m
Waxing Crescent, 39% of the Moon is Illuminated
Mar 29
Waxing Crescent
Mar 30
First Quarter
Apr 6
Full
Apr 13
Last Quarter
Apr 21
New

Hourly Weather History & Observations

Time (EDT) Temp. Windchill Dew Point Humidity Pressure Visibility Wind Dir Wind Speed Gust Speed Precip Events Conditions
12:15 AM 59.9 °F - 32.7 °F 36% 29.91 in 10.0 mi NW 5.8 mph - N/A   Clear
12:35 AM 59.2 °F - 32.9 °F 37% 29.91 in 10.0 mi North 4.6 mph - N/A   Clear
12:55 AM 57.2 °F - 36.7 °F 46% 29.92 in 10.0 mi North 5.8 mph - N/A   Clear
1:15 AM 56.3 °F - 38.1 °F 51% 29.92 in 10.0 mi NNW 4.6 mph - N/A   Clear
1:35 AM 56.3 °F - 39.4 °F 53% 29.92 in 10.0 mi NNW 3.5 mph - N/A   Clear
1:55 AM 55.4 °F - 39.9 °F 56% 29.93 in 10.0 mi NNW 3.5 mph - N/A   Clear
2:15 AM 54.5 °F - 39.7 °F 57% 29.94 in 10.0 mi NNW 10.4 mph - N/A   Clear
2:35 AM 53.4 °F - 39.6 °F 59% 29.94 in 10.0 mi NNW 4.6 mph - N/A   Clear
2:55 AM 52.3 °F - 39.4 °F 61% 29.94 in 10.0 mi Calm Calm - N/A   Clear
3:15 AM 51.8 °F - 39.2 °F 62% 29.94 in 10.0 mi WNW 4.6 mph - N/A   Clear
3:35 AM 50.9 °F - 39.2 °F 64% 29.94 in 10.0 mi WNW 3.5 mph - N/A   Clear
3:55 AM 50.5 °F - 39.2 °F 65% 29.94 in 10.0 mi NW 5.8 mph - N/A   Clear
4:15 AM 50.0 °F - 39.2 °F 66% 29.95 in 10.0 mi NNW 3.5 mph - N/A   Clear
4:35 AM 49.1 °F - 38.8 °F 68% 29.95 in 10.0 mi North 3.5 mph - N/A   Clear
4:55 AM 48.4 °F - 38.5 °F 69% 29.95 in 10.0 mi Calm Calm - N/A   Clear
5:15 AM 47.7 °F - 38.5 °F 70% 29.96 in 10.0 mi Calm Calm - N/A   Clear
5:35 AM 47.1 °F - 37.0 °F 68% 29.97 in 10.0 mi North 4.6 mph - N/A   Clear
5:55 AM 46.2 °F - 37.2 °F 71% 29.98 in 10.0 mi Calm Calm - N/A   Clear
6:15 AM 44.8 °F - 37.0 °F 74% 29.99 in 10.0 mi Calm Calm - N/A   Clear
6:35 AM 44.2 °F - 37.2 °F 76% 29.99 in 10.0 mi Calm Calm - N/A   Clear
6:55 AM 41.5 °F - 35.6 °F 79% 30.00 in 10.0 mi Calm Calm - N/A   Clear
7:15 AM 40.5 °F - 36.0 °F 84% 30.01 in 10.0 mi Calm Calm - N/A   Clear
7:35 AM 39.2 °F 37.0 °F 36.1 °F 89% 30.02 in 10.0 mi WNW 3.5 mph - N/A   Clear
7:55 AM 39.7 °F 37.6 °F 36.7 °F 89% 30.02 in 10.0 mi West 3.5 mph - N/A   Clear
8:15 AM 41.2 °F 39.2 °F 37.6 °F 87% 30.03 in 10.0 mi West 3.5 mph - N/A   Clear
8:35 AM 44.8 °F - 39.2 °F 81% 30.04 in 10.0 mi Calm Calm - N/A   Clear
8:55 AM 47.5 °F - 37.2 °F 68% 30.04 in 10.0 mi NW 5.8 mph - N/A   Clear
9:15 AM 48.2 °F - 37.0 °F 65% 30.06 in 10.0 mi NW 4.6 mph - N/A   Clear
9:35 AM 49.1 °F - 37.0 °F 63% 30.06 in 10.0 mi North 5.8 mph - N/A   Clear
9:55 AM 51.1 °F - 38.3 °F 62% - - North - - N/A   Unknown
10:15 AM 50.7 °F - 37.8 °F 61% 30.07 in 10.0 mi North 3.5 mph - N/A   Clear
10:35 AM 50.7 °F - 38.1 °F 62% 30.07 in 10.0 mi NE 4.6 mph - N/A   Scattered Clouds
11:35 AM 53.4 °F - 37.8 °F 55% 30.06 in 10.0 mi ENE 3.5 mph - N/A   Clear
11:55 AM 53.8 °F - 37.2 °F 54% 30.06 in 10.0 mi North 3.5 mph - N/A   Clear
12:15 PM 54.1 °F - 37.6 °F 54% 30.06 in 10.0 mi NNE 4.6 mph - N/A   Clear
12:35 PM 55.4 °F - 36.9 °F 50% 30.06 in 10.0 mi Calm Calm - N/A   Clear
12:55 PM 57.2 °F - 37.9 °F 49% 30.05 in 10.0 mi North 5.8 mph - N/A   Clear
1:15 PM 57.4 °F - 37.2 °F 47% 30.04 in 10.0 mi Calm Calm - N/A   Clear
1:35 PM 58.6 °F - 37.9 °F 46% 30.04 in 10.0 mi North 3.5 mph - N/A   Clear
1:55 PM 59.4 °F - 37.4 °F 44% 30.04 in 10.0 mi NNW 8.1 mph - N/A   Clear
2:15 PM 60.1 °F - 37.4 °F 43% 30.02 in 10.0 mi ENE 5.8 mph - N/A   Clear
2:35 PM 60.6 °F - 36.0 °F 40% 30.01 in 10.0 mi NW 4.6 mph - N/A   Clear
2:55 PM 61.2 °F - 35.6 °F 39% 30.00 in 10.0 mi Calm Calm - N/A   Clear
3:15 PM 62.1 °F - 35.1 °F 37% 30.00 in 10.0 mi WNW 3.5 mph - N/A   Clear
3:35 PM 61.7 °F - 33.8 °F 35% 29.99 in 10.0 mi Calm Calm - N/A   Clear
3:55 PM 63.3 °F - 36.5 °F 37% 29.99 in 10.0 mi North 5.8 mph - N/A   Clear
4:15 PM 62.8 °F - 34.9 °F 35% 29.98 in 10.0 mi NE 4.6 mph - N/A   Clear
4:35 PM 63.1 °F - 36.1 °F 37% 29.98 in 10.0 mi NE 6.9 mph - N/A   Clear
4:55 PM 63.3 °F - 34.9 °F 35% 29.98 in 10.0 mi NE 8.1 mph - N/A   Clear
5:15 PM 62.8 °F - 35.8 °F 37% 29.98 in 10.0 mi NE 8.1 mph - N/A   Clear
5:35 PM 62.8 °F - 36.5 °F 38% 29.97 in 10.0 mi North 6.9 mph - N/A   Clear
5:55 PM 62.2 °F - 36.5 °F 38% 29.98 in 10.0 mi North 5.8 mph - N/A   Clear
6:15 PM 61.7 °F - 35.8 °F 38% 29.98 in 10.0 mi North 6.9 mph - N/A   Clear
6:35 PM 61.2 °F - 36.7 °F 40% 29.98 in 10.0 mi NNE 5.8 mph - N/A   Clear
6:55 PM 60.4 °F - 36.0 °F 40% 29.98 in 10.0 mi North 5.8 mph - N/A   Clear
7:15 PM 59.2 °F - 35.8 °F 42% 29.99 in 10.0 mi North 4.6 mph - N/A   Clear
7:35 PM 57.7 °F - 36.5 °F 45% 30.00 in 10.0 mi North 4.6 mph - N/A   Clear
7:55 PM 57.2 °F - 36.5 °F 46% 30.00 in 10.0 mi NNW 3.5 mph - N/A   Clear
8:15 PM 56.3 °F - 36.7 °F 48% 30.00 in 10.0 mi NNW 3.5 mph - N/A   Clear
8:35 PM 55.4 °F - 36.9 °F 50% 30.01 in 10.0 mi North 3.5 mph - N/A   Clear
8:55 PM 54.5 °F - 37.0 °F 52% 30.01 in 10.0 mi Calm Calm - N/A   Clear
9:15 PM 53.6 °F - 36.7 °F 53% 30.01 in 10.0 mi North 4.6 mph - N/A   Clear
9:35 PM 52.9 °F - 36.5 °F 54% 30.01 in 10.0 mi North 3.5 mph - N/A   Clear
9:55 PM 51.6 °F - 37.0 °F 58% 30.02 in 10.0 mi NNE 4.6 mph - N/A   Clear
10:15 PM 50.9 °F - 36.9 °F 59% 30.02 in 10.0 mi Calm Calm - N/A   Clear
10:35 PM 50.9 °F - 36.9 °F 59% 30.02 in 10.0 mi NNE 8.1 mph - N/A   Clear
10:55 PM 50.0 °F - 36.5 °F 60% 30.02 in 10.0 mi NE 8.1 mph - N/A   Clear
11:15 PM 49.1 °F - 35.8 °F 60% 30.03 in 10.0 mi NE 13.8 mph - N/A   Clear
11:35 PM 47.8 °F - 36.5 °F 65% 30.04 in 10.0 mi NE 4.6 mph - N/A   Clear
11:55 PM 48.0 °F - 35.2 °F 61% 30.04 in 10.0 mi NE 11.5 mph - N/A   Clear